sensor_id;sensor_type;location;lat;lon;timestamp;temperature;humidity
41547;DHT22;27271;45.412;10.852;2023-07-20T04:31:36;19.90;99.90
41547;DHT22;27271;45.412;10.852;2023-07-20T04:46:57;20.20;99.90
41547;DHT22;27271;45.412;10.852;2023-07-20T04:53:57;20.60;99.90
41547;DHT22;27271;45.412;10.852;2023-07-20T04:57:36;20.60;99.90
41547;DHT22;27271;45.412;10.852;2023-07-20T05:01:00;20.70;99.90
41547;DHT22;27271;45.412;10.852;2023-07-20T05:04:24;20.90;99.90
41547;DHT22;27271;45.412;10.852;2023-07-20T05:08:00;20.90;99.90
41547;DHT22;27271;45.412;10.852;2023-07-20T05:11:25;21.10;99.90
41547;DHT22;27271;45.412;10.852;2023-07-20T05:14:49;21.10;99.90
41547;DHT22;27271;45.412;10.852;2023-07-20T05:18:16;21.50;99.90
41547;DHT22;27271;45.412;10.852;2023-07-20T05:21:46;22.20;99.90
41547;DHT22;27271;45.412;10.852;2023-07-20T05:29:16;23.10;99.90
41547;DHT22;27271;45.412;10.852;2023-07-20T05:32:38;24.10;99.90
41547;DHT22;27271;45.412;10.852;2023-07-20T05:36:00;24.60;99.90
41547;DHT22;27271;45.412;10.852;2023-07-20T05:39:22;24.60;99.90
41547;DHT22;27271;45.412;10.852;2023-07-20T05:42:48;25.00;99.90
41547;DHT22;27271;45.412;10.852;2023-07-20T05:46:14;25.70;99.90
41547;DHT22;27271;45.412;10.852;2023-07-20T05:49:36;26.40;99.90
41547;DHT22;27271;45.412;10.852;2023-07-20T05:52:58;25.40;99.90
41547;DHT22;27271;45.412;10.852;2023-07-20T05:56:20;25.50;99.90
41547;DHT22;27271;45.412;10.852;2023-07-20T05:59:42;25.40;99.90
41547;DHT22;27271;45.412;10.852;2023-07-20T06:03:06;25.90;99.90
41547;DHT22;27271;45.412;10.852;2023-07-20T06:06:29;26.30;99.90
41547;DHT22;27271;45.412;10.852;2023-07-20T06:09:51;25.90;99.90
41547;DHT22;27271;45.412;10.852;2023-07-20T06:13:14;25.80;99.90
41547;DHT22;27271;45.412;10.852;2023-07-20T06:16:36;25.90;99.90
41547;DHT22;27271;45.412;10.852;2023-07-20T06:19:58;27.00;99.90
41547;DHT22;27271;45.412;10.852;2023-07-20T06:23:20;27.00;99.90
41547;DHT22;27271;45.412;10.852;2023-07-20T06:26:42;28.20;99.90
41547;DHT22;27271;45.412;10.852;2023-07-20T06:30:05;29.20;99.90
41547;DHT22;27271;45.412;10.852;2023-07-20T06:33:27;29.50;99.90
41547;DHT22;27271;45.412;10.852;2023-07-20T06:36:49;30.50;99.90
41547;DHT22;27271;45.412;10.852;2023-07-20T06:40:12;31.50;1.00
41547;DHT22;27271;45.412;10.852;2023-07-20T06:43:37;32.90;1.00
41547;DHT22;27271;45.412;10.852;2023-07-20T06:47:02;34.20;1.00
41547;DHT22;27271;45.412;10.852;2023-07-20T06:50:24;35.50;1.00
41547;DHT22;27271;45.412;10.852;2023-07-20T06:53:50;35.30;1.00
41547;DHT22;27271;45.412;10.852;2023-07-20T06:57:13;35.20;1.00
41547;DHT22;27271;45.412;10.852;2023-07-20T07:00:38;34.40;1.00
41547;DHT22;27271;45.412;10.852;2023-07-20T07:04:01;34.60;1.00
41547;DHT22;27271;45.412;10.852;2023-07-20T07:07:27;34.60;1.00
41547;DHT22;27271;45.412;10.852;2023-07-20T07:10:51;34.80;1.00
41547;DHT22;27271;45.412;10.852;2023-07-20T07:14:16;35.20;1.00
41547;DHT22;27271;45.412;10.852;2023-07-20T07:17:47;34.60;1.00
41547;DHT22;27271;45.412;10.852;2023-07-20T07:21:10;34.10;1.00
41547;DHT22;27271;45.412;10.852;2023-07-20T07:24:34;33.80;1.00
41547;DHT22;27271;45.412;10.852;2023-07-20T07:27:59;34.30;1.00
41547;DHT22;27271;45.412;10.852;2023-07-20T07:31:21;35.30;1.00
41547;DHT22;27271;45.412;10.852;2023-07-20T07:34:44;36.10;1.00
41547;DHT22;27271;45.412;10.852;2023-07-20T07:38:08;35.60;1.00
41547;DHT22;27271;45.412;10.852;2023-07-20T07:41:50;36.00;1.00
41547;DHT22;27271;45.412;10.852;2023-07-20T07:45:13;36.60;1.00
41547;DHT22;27271;45.412;10.852;2023-07-20T07:48:36;36.20;1.00
41547;DHT22;27271;45.412;10.852;2023-07-20T07:51:58;35.70;1.00
41547;DHT22;27271;45.412;10.852;2023-07-20T07:55:24;35.50;1.00
41547;DHT22;27271;45.412;10.852;2023-07-20T07:58:49;35.40;1.00
41547;DHT22;27271;45.412;10.852;2023-07-20T08:02:13;35.90;1.00
41547;DHT22;27271;45.412;10.852;2023-07-20T08:05:35;35.90;1.00
41547;DHT22;27271;45.412;10.852;2023-07-20T08:08:57;36.70;1.00
41547;DHT22;27271;45.412;10.852;2023-07-20T08:12:19;36.60;1.00
41547;DHT22;27271;45.412;10.852;2023-07-20T08:15:49;37.00;1.00
41547;DHT22;27271;45.412;10.852;2023-07-20T08:19:12;37.20;99.90
41547;DHT22;27271;45.412;10.852;2023-07-20T08:22:34;36.50;1.00
41547;DHT22;27271;45.412;10.852;2023-07-20T08:25:57;36.90;99.90
41547;DHT22;27271;45.412;10.852;2023-07-20T08:29:19;37.10;1.00
41547;DHT22;27271;45.412;10.852;2023-07-20T08:32:41;37.50;99.90
41547;DHT22;27271;45.412;10.852;2023-07-20T08:36:03;37.20;99.90
41547;DHT22;27271;45.412;10.852;2023-07-20T08:39:26;38.00;99.90
41547;DHT22;27271;45.412;10.852;2023-07-20T08:42:48;38.60;99.90
41547;DHT22;27271;45.412;10.852;2023-07-20T08:46:11;38.30;99.90
41547;DHT22;27271;45.412;10.852;2023-07-20T08:49:35;39.00;99.90
41547;DHT22;27271;45.412;10.852;2023-07-20T08:52:59;38.90;99.90
41547;DHT22;27271;45.412;10.852;2023-07-20T08:56:25;39.10;99.90
41547;DHT22;27271;45.412;10.852;2023-07-20T08:59:47;38.60;99.90
41547;DHT22;27271;45.412;10.852;2023-07-20T09:03:11;38.20;99.90
41547;DHT22;27271;45.412;10.852;2023-07-20T09:06:34;37.70;99.90
41547;DHT22;27271;45.412;10.852;2023-07-20T09:09:57;38.00;99.90
41547;DHT22;27271;45.412;10.852;2023-07-20T09:13:20;38.40;99.90
41547;DHT22;27271;45.412;10.852;2023-07-20T09:16:55;38.50;99.90
41547;DHT22;27271;45.412;10.852;2023-07-20T09:20:18;38.80;99.90
41547;DHT22;27271;45.412;10.852;2023-07-20T09:23:44;38.50;99.90
41547;DHT22;27271;45.412;10.852;2023-07-20T09:27:06;38.60;99.90
41547;DHT22;27271;45.412;10.852;2023-07-20T09:30:28;38.80;99.90
41547;DHT22;27271;45.412;10.852;2023-07-20T09:33:54;38.70;99.90
41547;DHT22;27271;45.412;10.852;2023-07-20T09:37:23;38.10;99.90
41547;DHT22;27271;45.412;10.852;2023-07-20T09:40:45;37.50;99.90
41547;DHT22;27271;45.412;10.852;2023-07-20T09:44:10;37.40;99.90
41547;DHT22;27271;45.412;10.852;2023-07-20T09:47:37;37.80;99.90
41547;DHT22;27271;45.412;10.852;2023-07-20T09:51:00;38.40;99.90
41547;DHT22;27271;45.412;10.852;2023-07-20T09:54:22;38.30;99.90
41547;DHT22;27271;45.412;10.852;2023-07-20T09:57:46;38.50;99.90
41547;DHT22;27271;45.412;10.852;2023-07-20T10:01:09;38.00;99.90
41547;DHT22;27271;45.412;10.852;2023-07-20T10:04:34;38.70;99.90
41547;DHT22;27271;45.412;10.852;2023-07-20T10:07:58;37.80;99.90
41547;DHT22;27271;45.412;10.852;2023-07-20T10:11:24;37.10;99.90
41547;DHT22;27271;45.412;10.852;2023-07-20T10:18:41;36.10;99.90
41547;DHT22;27271;45.412;10.852;2023-07-20T10:22:12;36.40;99.90
41547;DHT22;27271;45.412;10.852;2023-07-20T10:25:36;36.20;99.90
41547;DHT22;27271;45.412;10.852;2023-07-20T10:29:03;36.30;99.90
41547;DHT22;27271;45.412;10.852;2023-07-20T10:32:26;37.30;99.90
41547;DHT22;27271;45.412;10.852;2023-07-20T10:35:56;36.10;99.90
41547;DHT22;27271;45.412;10.852;2023-07-20T10:39:32;36.40;99.90
41547;DHT22;27271;45.412;10.852;2023-07-20T10:43:03;36.20;99.90
41547;DHT22;27271;45.412;10.852;2023-07-20T10:46:45;35.80;99.90
41547;DHT22;27271;45.412;10.852;2023-07-20T10:50:08;35.70;99.90
41547;DHT22;27271;45.412;10.852;2023-07-20T10:53:30;35.70;99.90
41547;DHT22;27271;45.412;10.852;2023-07-20T10:56:54;35.00;99.90
41547;DHT22;27271;45.412;10.852;2023-07-20T11:00:19;35.70;99.90
41547;DHT22;27271;45.412;10.852;2023-07-20T11:03:49;35.80;99.90
41547;DHT22;27271;45.412;10.852;2023-07-20T11:07:16;35.40;99.90
41547;DHT22;27271;45.412;10.852;2023-07-20T11:10:39;35.20;99.90
41547;DHT22;27271;45.412;10.852;2023-07-20T11:14:06;34.80;99.90
41547;DHT22;27271;45.412;10.852;2023-07-20T11:17:33;34.60;99.90
41547;DHT22;27271;45.412;10.852;2023-07-20T11:20:55;35.10;99.90
41547;DHT22;27271;45.412;10.852;2023-07-20T11:24:18;35.70;99.90
41547;DHT22;27271;45.412;10.852;2023-07-20T11:27:45;35.20;99.90
41547;DHT22;27271;45.412;10.852;2023-07-20T11:31:08;34.60;99.90
41547;DHT22;27271;45.412;10.852;2023-07-20T11:34:32;34.70;99.90
41547;DHT22;27271;45.412;10.852;2023-07-20T11:37:55;34.40;99.90
41547;DHT22;27271;45.412;10.852;2023-07-20T11:41:19;34.00;99.90
41547;DHT22;27271;45.412;10.852;2023-07-20T11:44:41;33.90;99.90
41547;DHT22;27271;45.412;10.852;2023-07-20T11:48:04;33.80;99.90
41547;DHT22;27271;45.412;10.852;2023-07-20T11:51:28;33.70;99.90
41547;DHT22;27271;45.412;10.852;2023-07-20T11:54:50;33.60;99.90
41547;DHT22;27271;45.412;10.852;2023-07-20T11:58:14;33.60;99.90
41547;DHT22;27271;45.412;10.852;2023-07-20T12:01:38;33.70;99.90
41547;DHT22;27271;45.412;10.852;2023-07-20T12:05:02;33.80;99.90
41547;DHT22;27271;45.412;10.852;2023-07-20T12:08:24;33.80;99.90
41547;DHT22;27271;45.412;10.852;2023-07-20T12:11:49;33.80;99.90
41547;DHT22;27271;45.412;10.852;2023-07-20T12:15:24;33.80;99.90
41547;DHT22;27271;45.412;10.852;2023-07-20T12:18:48;33.30;99.90
41547;DHT22;27271;45.412;10.852;2023-07-20T12:22:10;33.00;99.90
41547;DHT22;27271;45.412;10.852;2023-07-20T12:25:44;33.10;99.90
41547;DHT22;27271;45.412;10.852;2023-07-20T12:29:06;33.00;99.90
41547;DHT22;27271;45.412;10.852;2023-07-20T12:32:28;33.10;99.90
41547;DHT22;27271;45.412;10.852;2023-07-20T12:35:50;33.40;99.90
41547;DHT22;27271;45.412;10.852;2023-07-20T12:39:17;33.60;99.90
41547;DHT22;27271;45.412;10.852;2023-07-20T12:42:39;33.70;99.90
41547;DHT22;27271;45.412;10.852;2023-07-20T12:46:01;33.70;99.90
41547;DHT22;27271;45.412;10.852;2023-07-20T12:49:23;33.60;99.90
41547;DHT22;27271;45.412;10.852;2023-07-20T12:52:46;33.70;99.90
41547;DHT22;27271;45.412;10.852;2023-07-20T12:56:08;34.00;99.90
41547;DHT22;27271;45.412;10.852;2023-07-20T12:59:33;34.30;99.90
41547;DHT22;27271;45.412;10.852;2023-07-20T13:02:55;34.20;99.90
41547;DHT22;27271;45.412;10.852;2023-07-20T13:06:20;33.90;99.90
41547;DHT22;27271;45.412;10.852;2023-07-20T13:09:46;33.50;99.90
41547;DHT22;27271;45.412;10.852;2023-07-20T13:13:08;33.80;99.90
41547;DHT22;27271;45.412;10.852;2023-07-20T13:16:30;33.90;99.90
41547;DHT22;27271;45.412;10.852;2023-07-20T13:19:52;33.90;99.90
41547;DHT22;27271;45.412;10.852;2023-07-20T13:23:14;33.70;99.90
41547;DHT22;27271;45.412;10.852;2023-07-20T13:26:37;34.00;99.90
41547;DHT22;27271;45.412;10.852;2023-07-20T13:30:00;34.10;99.90
41547;DHT22;27271;45.412;10.852;2023-07-20T13:33:24;34.10;99.90
41547;DHT22;27271;45.412;10.852;2023-07-20T13:36:49;34.10;99.90
41547;DHT22;27271;45.412;10.852;2023-07-20T13:40:15;33.90;99.90
41547;DHT22;27271;45.412;10.852;2023-07-20T13:43:39;33.70;99.90
41547;DHT22;27271;45.412;10.852;2023-07-20T13:47:01;33.80;99.90
41547;DHT22;27271;45.412;10.852;2023-07-20T13:50:27;33.90;99.90
41547;DHT22;27271;45.412;10.852;2023-07-20T13:54:01;34.20;99.90
41547;DHT22;27271;45.412;10.852;2023-07-20T13:57:43;34.30;99.90
41547;DHT22;27271;45.412;10.852;2023-07-20T14:01:05;34.00;99.90
41547;DHT22;27271;45.412;10.852;2023-07-20T14:04:27;33.60;99.90
41547;DHT22;27271;45.412;10.852;2023-07-20T14:07:51;33.60;99.90
41547;DHT22;27271;45.412;10.852;2023-07-20T14:11:13;33.50;99.90
41547;DHT22;27271;45.412;10.852;2023-07-20T14:14:38;33.20;99.90
41547;DHT22;27271;45.412;10.852;2023-07-20T14:18:00;33.10;99.90
41547;DHT22;27271;45.412;10.852;2023-07-20T14:21:22;33.30;99.90
41547;DHT22;27271;45.412;10.852;2023-07-20T14:24:46;33.30;99.90
41547;DHT22;27271;45.412;10.852;2023-07-20T14:28:08;33.70;99.90
41547;DHT22;27271;45.412;10.852;2023-07-20T14:31:30;33.80;99.90
41547;DHT22;27271;45.412;10.852;2023-07-20T14:34:53;33.70;99.90
41547;DHT22;27271;45.412;10.852;2023-07-20T14:38:16;33.90;99.90
41547;DHT22;27271;45.412;10.852;2023-07-20T14:41:38;33.80;99.90
41547;DHT22;27271;45.412;10.852;2023-07-20T14:45:00;33.80;99.90
41547;DHT22;27271;45.412;10.852;2023-07-20T14:48:22;33.50;99.90
41547;DHT22;27271;45.412;10.852;2023-07-20T14:51:45;33.50;99.90
41547;DHT22;27271;45.412;10.852;2023-07-20T14:55:08;33.40;99.90
41547;DHT22;27271;45.412;10.852;2023-07-20T14:58:31;33.60;99.90
41547;DHT22;27271;45.412;10.852;2023-07-20T15:01:56;33.70;99.90
41547;DHT22;27271;45.412;10.852;2023-07-20T15:05:23;34.10;99.90
41547;DHT22;27271;45.412;10.852;2023-07-20T15:08:45;33.70;99.90
41547;DHT22;27271;45.412;10.852;2023-07-20T15:12:07;33.30;99.90
41547;DHT22;27271;45.412;10.852;2023-07-20T15:15:30;33.40;99.90
41547;DHT22;27271;45.412;10.852;2023-07-20T15:18:52;33.50;99.90
41547;DHT22;27271;45.412;10.852;2023-07-20T15:22:15;33.50;99.90
41547;DHT22;27271;45.412;10.852;2023-07-20T15:25:37;33.70;99.90
41547;DHT22;27271;45.412;10.852;2023-07-20T15:28:59;33.50;99.90
41547;DHT22;27271;45.412;10.852;2023-07-20T15:32:21;33.60;99.90
41547;DHT22;27271;45.412;10.852;2023-07-20T15:35:44;33.90;99.90
41547;DHT22;27271;45.412;10.852;2023-07-20T15:39:08;34.00;99.90
41547;DHT22;27271;45.412;10.852;2023-07-20T15:42:31;34.00;99.90
41547;DHT22;27271;45.412;10.852;2023-07-20T15:49:44;33.20;99.90
41547;DHT22;27271;45.412;10.852;2023-07-20T15:53:07;33.10;99.90
41547;DHT22;27271;45.412;10.852;2023-07-20T15:56:29;33.10;99.90
41547;DHT22;27271;45.412;10.852;2023-07-20T15:59:51;33.10;99.90
41547;DHT22;27271;45.412;10.852;2023-07-20T16:03:15;32.90;99.90
41547;DHT22;27271;45.412;10.852;2023-07-20T16:06:37;32.90;99.90
41547;DHT22;27271;45.412;10.852;2023-07-20T16:10:00;32.90;99.90
41547;DHT22;27271;45.412;10.852;2023-07-20T16:13:24;33.00;99.90
41547;DHT22;27271;45.412;10.852;2023-07-20T16:16:46;33.00;99.90
41547;DHT22;27271;45.412;10.852;2023-07-20T16:20:08;33.00;99.90
41547;DHT22;27271;45.412;10.852;2023-07-20T16:23:31;32.90;99.90
41547;DHT22;27271;45.412;10.852;2023-07-20T16:26:53;33.10;99.90
41547;DHT22;27271;45.412;10.852;2023-07-20T16:30:15;32.90;99.90
41547;DHT22;27271;45.412;10.852;2023-07-20T16:33:41;32.80;99.90
41547;DHT22;27271;45.412;10.852;2023-07-20T16:37:06;32.60;99.90
41547;DHT22;27271;45.412;10.852;2023-07-20T16:40:48;32.50;99.90
41547;DHT22;27271;45.412;10.852;2023-07-20T16:44:13;32.30;99.90
41547;DHT22;27271;45.412;10.852;2023-07-20T16:47:36;32.70;99.90
41547;DHT22;27271;45.412;10.852;2023-07-20T16:50:59;32.80;99.90
41547;DHT22;27271;45.412;10.852;2023-07-20T16:54:21;32.90;99.90
41547;DHT22;27271;45.412;10.852;2023-07-20T16:57:43;32.90;99.90
41547;DHT22;27271;45.412;10.852;2023-07-20T17:01:06;32.80;99.90
41547;DHT22;27271;45.412;10.852;2023-07-20T17:04:28;32.60;99.90
41547;DHT22;27271;45.412;10.852;2023-07-20T17:07:50;32.50;99.90
41547;DHT22;27271;45.412;10.852;2023-07-20T17:11:17;32.50;99.90
41547;DHT22;27271;45.412;10.852;2023-07-20T17:14:39;32.60;99.90
41547;DHT22;27271;45.412;10.852;2023-07-20T17:18:02;32.70;99.90
41547;DHT22;27271;45.412;10.852;2023-07-20T17:21:24;32.70;99.90
41547;DHT22;27271;45.412;10.852;2023-07-20T17:24:47;32.70;99.90
41547;DHT22;27271;45.412;10.852;2023-07-20T17:28:12;32.60;99.90
41547;DHT22;27271;45.412;10.852;2023-07-20T17:31:37;32.40;99.90
41547;DHT22;27271;45.412;10.852;2023-07-20T17:35:00;32.10;99.90
41547;DHT22;27271;45.412;10.852;2023-07-20T17:38:22;31.80;99.90
41547;DHT22;27271;45.412;10.852;2023-07-20T17:41:47;31.50;99.90
41547;DHT22;27271;45.412;10.852;2023-07-20T17:45:11;31.20;99.90
41547;DHT22;27271;45.412;10.852;2023-07-20T17:48:33;30.80;99.90
41547;DHT22;27271;45.412;10.852;2023-07-20T17:51:56;30.70;99.90
41547;DHT22;27271;45.412;10.852;2023-07-20T17:55:19;30.50;99.90
41547;DHT22;27271;45.412;10.852;2023-07-20T17:58:41;30.40;99.90
41547;DHT22;27271;45.412;10.852;2023-07-20T18:02:04;30.20;99.90
41547;DHT22;27271;45.412;10.852;2023-07-20T18:05:26;30.00;99.90
41547;DHT22;27271;45.412;10.852;2023-07-20T18:08:48;29.80;1.00
41547;DHT22;27271;45.412;10.852;2023-07-20T18:12:11;29.60;1.00
41547;DHT22;27271;45.412;10.852;2023-07-20T18:15:33;29.40;1.00
41547;DHT22;27271;45.412;10.852;2023-07-20T18:18:55;29.30;1.00
41547;DHT22;27271;45.412;10.852;2023-07-20T18:22:17;29.10;1.00
41547;DHT22;27271;45.412;10.852;2023-07-20T18:25:42;29.00;1.00
41547;DHT22;27271;45.412;10.852;2023-07-20T18:29:04;28.90;1.00
41547;DHT22;27271;45.412;10.852;2023-07-20T18:32:26;28.70;1.00
41547;DHT22;27271;45.412;10.852;2023-07-20T18:35:48;28.50;1.00
41547;DHT22;27271;45.412;10.852;2023-07-20T18:39:12;28.40;1.00
41547;DHT22;27271;45.412;10.852;2023-07-20T18:42:35;28.30;1.00
41547;DHT22;27271;45.412;10.852;2023-07-20T18:45:58;28.20;1.00
41547;DHT22;27271;45.412;10.852;2023-07-20T18:49:20;28.10;1.00
41547;DHT22;27271;45.412;10.852;2023-07-20T18:52:42;28.00;1.00
41547;DHT22;27271;45.412;10.852;2023-07-20T18:56:05;27.80;1.00
41547;DHT22;27271;45.412;10.852;2023-07-20T18:59:30;27.60;1.00
41547;DHT22;27271;45.412;10.852;2023-07-20T19:02:52;27.50;43.10
41547;DHT22;27271;45.412;10.852;2023-07-20T19:06:14;27.30;60.90
41547;DHT22;27271;45.412;10.852;2023-07-20T19:09:37;27.10;63.30
41547;DHT22;27271;45.412;10.852;2023-07-20T19:12:59;27.00;79.60
41547;DHT22;27271;45.412;10.852;2023-07-20T19:16:21;26.90;33.90
41547;DHT22;27271;45.412;10.852;2023-07-20T19:19:44;26.70;99.90
41547;DHT22;27271;45.412;10.852;2023-07-20T19:23:06;26.60;99.90
41547;DHT22;27271;45.412;10.852;2023-07-20T19:26:28;26.60;99.90
41547;DHT22;27271;45.412;10.852;2023-07-20T19:29:50;26.50;99.90
41547;DHT22;27271;45.412;10.852;2023-07-20T19:33:13;26.30;96.40
41547;DHT22;27271;45.412;10.852;2023-07-20T19:36:35;26.30;99.90
41547;DHT22;27271;45.412;10.852;2023-07-20T19:39:57;26.20;99.90
41547;DHT22;27271;45.412;10.852;2023-07-20T19:43:20;26.10;99.90
41547;DHT22;27271;45.412;10.852;2023-07-20T19:46:45;26.10;99.20
41547;DHT22;27271;45.412;10.852;2023-07-20T19:50:08;26.10;95.40
41547;DHT22;27271;45.412;10.852;2023-07-20T19:53:30;26.10;91.10
41547;DHT22;27271;45.412;10.852;2023-07-20T19:56:53;26.10;99.90
41547;DHT22;27271;45.412;10.852;2023-07-20T20:00:16;26.00;70.60
41547;DHT22;27271;45.412;10.852;2023-07-20T20:03:40;26.00;99.90
41547;DHT22;27271;45.412;10.852;2023-07-20T20:07:02;25.90;99.90
41547;DHT22;27271;45.412;10.852;2023-07-20T20:10:33;25.80;99.90
41547;DHT22;27271;45.412;10.852;2023-07-20T20:14:15;25.80;99.90
41547;DHT22;27271;45.412;10.852;2023-07-20T20:17:38;25.80;99.90
41547;DHT22;27271;45.412;10.852;2023-07-20T20:21:00;25.90;99.90
41547;DHT22;27271;45.412;10.852;2023-07-20T20:24:22;26.00;99.90
41547;DHT22;27271;45.412;10.852;2023-07-20T20:27:45;26.00;99.90
41547;DHT22;27271;45.412;10.852;2023-07-20T20:31:07;26.00;99.90
41547;DHT22;27271;45.412;10.852;2023-07-20T20:34:30;26.00;99.90
41547;DHT22;27271;45.412;10.852;2023-07-20T20:37:52;26.00;99.90
41547;DHT22;27271;45.412;10.852;2023-07-20T20:41:14;26.00;99.90
41547;DHT22;27271;45.412;10.852;2023-07-20T20:44:36;26.00;99.90
41547;DHT22;27271;45.412;10.852;2023-07-20T20:47:58;26.00;99.90
41547;DHT22;27271;45.412;10.852;2023-07-20T20:51:23;26.00;99.90
41547;DHT22;27271;45.412;10.852;2023-07-20T20:54:45;26.00;99.90
41547;DHT22;27271;45.412;10.852;2023-07-20T20:58:08;26.00;99.90
41547;DHT22;27271;45.412;10.852;2023-07-20T21:01:33;26.10;99.90
41547;DHT22;27271;45.412;10.852;2023-07-20T21:04:55;26.10;99.90
41547;DHT22;27271;45.412;10.852;2023-07-20T21:08:18;26.20;99.90
41547;DHT22;27271;45.412;10.852;2023-07-20T21:11:40;26.20;99.90
41547;DHT22;27271;45.412;10.852;2023-07-20T21:15:02;26.20;99.90
41547;DHT22;27271;45.412;10.852;2023-07-20T21:18:27;26.20;99.90
41547;DHT22;27271;45.412;10.852;2023-07-20T21:21:49;26.10;99.90
41547;DHT22;27271;45.412;10.852;2023-07-20T21:25:11;26.00;99.90
41547;DHT22;27271;45.412;10.852;2023-07-20T21:28:35;26.00;99.90
41547;DHT22;27271;45.412;10.852;2023-07-20T21:31:57;26.00;99.90
41547;DHT22;27271;45.412;10.852;2023-07-20T21:35:20;26.00;99.90
41547;DHT22;27271;45.412;10.852;2023-07-20T21:38:42;26.00;99.90
41547;DHT22;27271;45.412;10.852;2023-07-20T21:42:04;26.00;74.90
41547;DHT22;27271;45.412;10.852;2023-07-20T21:45:26;25.90;71.20
41547;DHT22;27271;45.412;10.852;2023-07-20T21:48:48;26.00;98.00
41547;DHT22;27271;45.412;10.852;2023-07-20T21:52:10;26.00;99.90
41547;DHT22;27271;45.412;10.852;2023-07-20T21:55:32;26.00;97.20
41547;DHT22;27271;45.412;10.852;2023-07-20T21:58:54;25.90;51.80
41547;DHT22;27271;45.412;10.852;2023-07-20T22:02:16;25.80;29.30
41547;DHT22;27271;45.412;10.852;2023-07-20T22:05:42;25.90;37.80
41547;DHT22;27271;45.412;10.852;2023-07-20T22:09:06;25.80;24.40
41547;DHT22;27271;45.412;10.852;2023-07-20T22:12:29;25.80;99.90
41547;DHT22;27271;45.412;10.852;2023-07-20T22:15:51;25.80;99.90
41547;DHT22;27271;45.412;10.852;2023-07-20T22:19:13;25.80;99.90
41547;DHT22;27271;45.412;10.852;2023-07-20T22:22:41;25.60;1.00
41547;DHT22;27271;45.412;10.852;2023-07-20T22:26:03;25.40;1.00
41547;DHT22;27271;45.412;10.852;2023-07-20T22:29:26;25.00;99.90
